• Join FlightAware (Why Join?)
  • Login
  • US Flag 
05:44PM EDT


 

Airport Tracker/Info


-or-


 

Live Flight TrackerFlight Track Log ✈ UAL4422 ✈ 19-Apr-2013 ✈ KIAH - KMAF

Flight Track Log - Related Links

Times and Time Zones

All times are in EDT time to prevent confusion due to time zone crossing. See the UAL4422 flight status page for this flight to view local times or setup timezone preferences in your user account.

Time Position Orientation Groundspeed Altitude Reporting Facility
EDT Latitude Longitude Course Direction KTS MPH feet Rate Location/Type
05:38PM 29.9814 -95.3533 276° West 173 199 700  Level Houston Center
05:38PM 29.9925 -95.3808 295° West 176 203 2,000 2,040 Climbing Houston Center
05:39PM 29.9886 -95.4536 266° West 241 277 4,100 1,980 Climbing Houston Center
05:40PM 29.9917 -95.4792 278° West 229 264 4,900 2,640 Climbing Houston Center
05:40PM 29.9981 -95.5344 278° West 244 281 6,800 2,400 Climbing Houston Center
05:41PM 30.0278 -95.7498 277° West  Level FlightAware Approximate
05:41PM 30.0022 -95.5567 282° West 248 285 7,400  Level Houston Center
05:41PM 30.0097 -95.6175 278° West 261 300 9,400 2,460 Climbing Houston Center
05:42PM 30.0379 -95.8544 276° West  Level FlightAware Approximate
05:42PM 30.0144 -95.6383 285° West 257 296 10,000  Level Houston Center
05:43PM 30.0466 -95.9593 276° West  Level FlightAware Approximate
05:43PM 30.0297 -95.7481 279° West 292 336 11,200  Level Houston Center
05:44PM 30.0433 -95.8486 279° West 317 365 12,700 1,320 Climbing Houston Center
05:45PM 30.0586 -95.9519 280° West 325 374 14,000 1,260 Climbing Houston Center
05:46PM 30.0739 -96.0653 279° West 334 384 15,400 1,320 Climbing Houston Center
05:47PM 30.0883 -96.1706 279° West 333 383 16,800 1,140 Climbing Houston Center
05:48PM 30.1039 -96.2750 280° West 333 383 17,800 1,020 Climbing Houston Center
05:49PM 30.1194 -96.3822 280° West 338 389 19,000 1,200 Climbing Houston Center
05:50PM 30.1383 -96.5003 281° West 341 392 20,400 1,200 Climbing Houston Center
05:51PM 30.1547 -96.6117 280° West 346 398 21,600 1,200 Climbing Houston Center
05:52PM 30.1711 -96.7231 280° West 347 399 22,900 1,140 Climbing Houston Center
05:53PM 30.1900 -96.8497 280° West 343 395 24,000 960 Climbing Houston Center
05:54PM 30.2225 -96.9583 289° West 353 406 24,900 1,080 Climbing Houston Center
05:55PM 30.2600 -97.0631 293° West 348 400 26,300 1,320 Climbing Houston Center
05:56PM 30.2969 -97.1625 293° West 336 387 27,700 1,020 Climbing Houston Center
05:57PM 30.3331 -97.2611 293° West 331 381 28,500 1,020 Climbing Houston Center
05:58PM 30.3681 -97.3569 293° West 321 369 29,900 1,260 Climbing Houston Center
05:59PM 30.4014 -97.4522 292° West 315 362 31,200 960 Climbing Houston Center
06:00PM 30.4367 -97.5467 293° West 316 364 32,000 360 Climbing Houston Center
06:01PM 30.4800 -97.6675 293° West 345 397 32,000  Level Houston Center
06:03PM 30.5192 -97.7753 293° West 356 410 32,000  Level Houston Center
06:04PM 30.5594 -97.8842 293° West 361 415 32,000  Level Houston Center
06:05PM 30.5958 -97.9906 292° West 353 406 32,000  Level Houston Center
06:06PM 30.6347 -98.0975 293° West 352 405 32,000  Level Houston Center
06:07PM 30.6719 -98.2028 292° West 350 403 32,000  Level Houston Center
06:08PM 30.7097 -98.3094 292° West 352 405 32,000  Level Houston Center
06:09PM 30.7547 -98.4333 293° West 353 406 32,000  Level Houston Center
06:10PM 30.7919 -98.5411 292° West 356 410 32,000  Level Houston Center
06:11PM 30.8300 -98.6500 292° West 359 413 32,000  Level Houston Center
06:12PM 30.8672 -98.7583 292° West 358 412 32,000  Level Houston Center
06:13PM 30.9072 -98.8686 293° West 364 419 32,000  Level Houston Center
06:14PM 30.9464 -98.9797 292° West 367 422 32,000  Level Houston Center
06:15PM 30.9847 -99.0925 292° West 370 426 32,000  Level Houston Center
06:16PM 31.0231 -99.2014 292° West 371 427 32,000  Level Houston Center
06:17PM 31.0700 -99.3361 292° West 374 430 32,000  Level Houston Center
06:18PM 31.1069 -99.4472 291° West 371 427 32,000  Level Houston Center
06:19PM 31.1453 -99.5592 292° West 371 427 32,000  Level Houston Center
06:20PM 31.1842 -99.6717 292° West 373 429 32,000  Level Houston Center
06:21PM 31.2228 -99.7864 292° West 378 435 32,000  Level Houston Center
06:22PM 31.2703 -99.9239 292° West 381 438 32,000  Level Houston Center
06:23PM 31.3094 -100.0397 292° West 382 440 32,000  Level Houston Center
06:24PM 31.3489 -100.1564 292° West 385 443 32,000  Level Houston Center
06:25PM 31.3878 -100.2756 291° West 393 452 32,000  Level Houston Center
06:26PM 31.4050 -100.3267 292° West 388 447 32,000  Level Fort Worth Center
06:27PM 31.4419 -100.4422 291° West 388 447 32,000 -540 Level Fort Worth Center
06:28PM 31.4831 -100.5556 293° West 388 447 31,000 -1,200 Descending Fort Worth Center
06:29PM 31.5158 -100.6592 290° West 388 447 29,600 -1,500 Descending Fort Worth Center
06:30PM 31.5544 -100.7775 291° West 388 447 28,000 -1,920 Descending Fort Worth Center
06:31PM 31.5969 -100.9011 292° West 393 452 25,800 -2,280 Descending Fort Worth Center
06:32PM 31.6372 -101.0269 291° West 400 460 23,500 -2,280 Descending Fort Worth Center
06:33PM 31.6756 -101.1456 291° West 400 460 21,300 -2,220 Descending Fort Worth Center
06:34PM 31.7136 -101.2667 290° West 400 460 19,100 -2,160 Descending Fort Worth Center
06:35PM 31.7539 -101.3883 291° West 395 455 17,100 -2,160 Descending Fort Worth Center
06:36PM 31.7625 -101.5058 275° West 366 421 14,800 -2,280 Descending Fort Worth Center
06:37PM 31.7775 -101.6189 279° West 373 429 12,600 -1,920 Descending Fort Worth Center
06:38PM 31.7969 -101.7225 282° West 359 413 11,000 -1,500 Descending Fort Worth Center
06:39PM 31.8361 -101.8025 300° West 315 362 9,700 -1,440 Descending Fort Worth Center
06:40PM 31.8753 -101.8753 302° West 281 323 8,200 -1,500 Descending Fort Worth Center
06:41PM 31.9122 -101.9456 302° West 260 299 6,700 -1,140 Descending Fort Worth Center
06:42PM 31.9558 -102.0089 309° West 255 293 6,000 -660 Descending Fort Worth Center
06:43PM 32.0081 -102.0656 317° Northwest 255 293 5,400 -600 Descending Fort Worth Center
06:44PM 32.0561 -102.1194 316° Northwest 250 288 4,900 -540 Descending Fort Worth Center